Verona, NY

8:50 AM EDT on March 29, 2015 (GMT -0400)
Lowell7855dhf | | Change Station
CLOSE
Current Station
Personal Weather Station
Location: Rome, NY
Elevation: 617 ft
Nearby Weather Stations

Elev 617 ft 43.13 °N, 75.49 °W | Updated 7 minutes ago

Clear
Clear
28.8 °F
Feels Like 29 °F
N
2.2
Wind Variable Wind from NNW

Today
High -- | Low -- °F
--% Chance of Precip.
Yesterday
High -- | Low -- °F
Precip. -- in
6:50 AM 7:24 PM
Waxing Gibbous, 71% visible
Pressure 30.31 in
Visibility 10.0 miles
Clouds Clear
Windchill 29 °F
Dew Point 17 °F
Humidity 61%
Rainfall 0.00 in
Snow Depth Not available.
UV 1 out of 12
Pollen 1.70 out of 12
Air Quality Not available.
Flu Activity Not available.
METAR KRME 291153Z 00000KT 10SM CLR M14/M16 A3028 RMK AO2 SLP263 I6000 T11391156 11111 21144 52019

More Conditions Fewer Conditions

Pressure 30.31 in
Visibility 10.0 miles
Clouds Clear
Windchill 29 °F
Dew Point 17 °F
Humidity 61%
Rainfall 0.00 in
Snow Depth Not available.
UV 1 out of 12
Pollen 1.70 out of 12
Air Quality Not available.
Flu Activity Not available.
METAR KRME 291153Z 00000KT 10SM CLR M14/M16 A3028 RMK AO2 SLP263 I6000 T11391156 11111 21144 52019

More Conditions Fewer Conditions

10-Day Weather Forecast

Almanac

Astronomy

Mar. 29, 2015 Rise Set
Actual Time
Civil Twilight
Nautical Twilight
Astronomical Twilight
Moon
Length of Visible Light
Length of Day
Tomorrow will be .
, % of the Moon is Illuminated

Today's Extremes

State Highs State Lows

Community

WunderPhotos

Upload Photos

1,809,232 photos uploaded!

WunderBlogs® & News

Nearby

Air Quality

  Air Quality AQ Index Pollutant
Not available.

Snow Depth

Station Depth Elevation

Earthquake Activity

City Distance Mag. Time & Date
Minimum magnitude displayed is 2.5.

Coastal Water Temperatures

Place Temperature

Stations

Nearby Weather Stations

Station Location Temp. Windchill Dew Point Humidity Wind Precip. Elev Updated Type